createdAt,value
2023-01-02T00:00:38.558Z,11.65
2023-01-02T00:03:06.771Z,9.65
2023-01-02T00:05:35.595Z,13.43
2023-01-02T00:08:02.627Z,14.52
2023-01-02T00:10:29.656Z,10.20
2023-01-02T00:12:56.728Z,12.95
2023-01-02T00:15:23.784Z,14.20
2023-01-02T00:17:50.829Z,10.65
2023-01-02T00:20:18.611Z,14.05
2023-01-02T00:22:45.637Z,10.40
2023-01-02T00:25:12.800Z,11.02
2023-01-02T00:27:39.895Z,12.82
2023-01-02T00:30:07.668Z,8.95
2023-01-02T00:32:34.742Z,9.20
2023-01-02T00:35:01.785Z,6.90
2023-01-02T00:37:28.799Z,9.88
2023-01-02T00:39:55.768Z,14.10
2023-01-02T00:42:22.824Z,11.80
2023-01-02T00:44:49.909Z,7.38
2023-01-02T00:47:16.940Z,11.32
2023-01-02T00:49:43.935Z,10.18
2023-01-02T00:52:10.964Z,7.82
2023-01-02T00:54:37.969Z,9.55
2023-01-02T00:57:05.099Z,10.35
2023-01-02T00:59:32.080Z,9.52
2023-01-02T01:01:59.279Z,10.32
2023-01-02T01:04:26.301Z,9.70
2023-01-02T01:06:53.302Z,7.30
2023-01-02T01:09:21.415Z,11.73
2023-01-02T01:11:48.472Z,9.95
2023-01-02T01:14:15.740Z,6.68
2023-01-02T01:16:42.960Z,6.13
2023-01-02T01:19:10.764Z,5.68
2023-01-02T01:21:37.950Z,6.63
2023-01-02T01:24:05.234Z,7.53
2023-01-02T01:26:32.360Z,8.45
2023-01-02T01:28:59.336Z,9.30
2023-01-02T01:31:26.414Z,9.65
2023-01-02T01:33:54.145Z,6.20
2023-01-02T01:36:23.821Z,8.00
2023-01-02T01:38:50.978Z,4.28
2023-01-02T01:41:20.938Z,6.97
2023-01-02T01:43:52.041Z,5.03
2023-01-02T01:46:25.450Z,6.40
2023-01-02T01:49:21.878Z,11.38
2023-01-02T01:51:51.555Z,8.23
2023-01-02T01:54:24.825Z,5.60
2023-01-02T01:56:57.272Z,10.15
2023-01-02T01:59:25.265Z,7.57
2023-01-02T02:01:52.490Z,4.50
2023-01-02T02:04:22.469Z,8.18
2023-01-02T02:06:51.030Z,6.63
2023-01-02T02:09:35.449Z,10.43
2023-01-02T02:12:03.961Z,6.95
2023-01-02T02:14:31.053Z,9.65
2023-01-02T02:17:18.943Z,5.63
2023-01-02T02:19:55.162Z,5.00
2023-01-02T02:22:53.165Z,6.57
2023-01-02T02:25:57.503Z,8.52
2023-01-02T02:28:47.363Z,8.55
2023-01-02T02:31:26.395Z,6.45
2023-01-02T02:34:04.846Z,8.90
2023-01-02T02:36:45.052Z,7.70
2023-01-02T02:39:24.561Z,5.65
2023-01-02T02:42:03.530Z,6.20
2023-01-02T02:44:45.700Z,7.78
2023-01-02T02:47:27.907Z,10.85
2023-01-02T02:50:03.835Z,5.35
2023-01-02T02:52:41.498Z,4.95
2023-01-02T02:55:14.014Z,9.82
2023-01-02T02:57:43.449Z,7.90
2023-01-02T03:00:15.176Z,5.20
2023-01-02T03:02:42.283Z,8.45
2023-01-02T03:05:16.315Z,9.07
2023-01-02T03:07:56.485Z,7.70
2023-01-02T03:10:34.643Z,5.18
2023-01-02T03:13:41.422Z,8.48
2023-01-02T03:16:27.580Z,17.17
2023-01-02T03:19:07.002Z,11.70
2023-01-02T03:21:39.361Z,9.25
2023-01-02T03:24:09.481Z,7.57
2023-01-02T03:26:39.854Z,6.70
2023-01-02T03:29:17.468Z,6.78
2023-01-02T03:31:50.559Z,6.78
2023-01-02T03:34:22.775Z,7.18
2023-01-02T03:36:54.575Z,6.10
2023-01-02T03:41:58.538Z,11.98
2023-01-02T03:44:32.776Z,14.05
2023-01-02T03:47:24.949Z,11.65
2023-01-02T03:49:55.415Z,10.00
2023-01-02T03:52:26.099Z,11.15
2023-01-02T03:54:55.747Z,10.27
2023-01-02T03:57:52.176Z,12.38
2023-01-02T04:00:23.296Z,8.75
2023-01-02T04:03:04.111Z,11.07
2023-01-02T04:05:54.961Z,9.52
2023-01-02T04:08:33.016Z,9.80
2023-01-02T04:11:02.877Z,9.52
2023-01-02T04:13:38.840Z,9.13
2023-01-02T04:16:10.571Z,12.30
2023-01-02T04:18:46.991Z,11.70
2023-01-02T04:21:19.170Z,11.48
2023-01-02T04:23:53.935Z,11.82
2023-01-02T04:26:35.281Z,12.43
2023-01-02T04:29:03.015Z,11.13
2023-01-02T04:31:44.737Z,11.60
2023-01-02T04:34:15.598Z,16.73
2023-01-02T04:36:43.079Z,12.63
2023-01-02T04:39:10.352Z,14.20
2023-01-02T04:41:40.384Z,12.55
2023-01-02T04:44:07.604Z,14.10
2023-01-02T04:46:34.700Z,10.45
2023-01-02T04:49:01.745Z,12.55
2023-01-02T04:51:29.037Z,15.23
2023-01-02T04:53:56.157Z,35.40
2023-01-02T04:56:23.228Z,18.23
2023-01-02T04:58:50.657Z,11.57
2023-01-02T05:01:20.981Z,11.43
2023-01-02T05:03:50.201Z,9.75
2023-01-02T05:06:17.238Z,8.55
2023-01-02T05:08:44.519Z,8.55
2023-01-02T05:11:16.385Z,17.00
2023-01-02T05:16:10.967Z,17.02
2023-01-02T05:18:38.233Z,17.70
2023-01-02T05:21:07.922Z,17.70
2023-01-02T05:23:35.019Z,14.80
2023-01-02T05:26:02.078Z,13.07
2023-01-02T05:28:32.520Z,15.93
2023-01-02T05:31:03.831Z,12.43
2023-01-02T05:33:30.808Z,8.05
2023-01-02T05:35:58.738Z,8.07
2023-01-02T05:38:25.733Z,8.55
2023-01-02T05:41:03.809Z,9.30
2023-01-02T05:43:35.861Z,8.48
2023-01-02T05:46:11.730Z,8.95
2023-01-02T05:48:39.903Z,20.20
2023-01-02T05:51:09.656Z,15.55
2023-01-02T05:53:37.155Z,13.43
2023-01-02T05:56:17.756Z,16.80
2023-01-02T05:58:46.732Z,34.35
2023-01-02T06:01:22.151Z,42.30
2023-01-02T06:03:53.679Z,16.88
2023-01-02T06:06:23.463Z,14.32
2023-01-02T06:08:50.668Z,11.95
2023-01-02T06:11:17.785Z,16.20
2023-01-02T06:13:44.841Z,19.70
2023-01-02T06:16:11.946Z,18.88
2023-01-02T06:18:40.292Z,19.50
2023-01-02T06:21:13.096Z,18.45
2023-01-02T06:23:40.984Z,15.30
2023-01-02T06:26:09.410Z,16.40
2023-01-02T06:28:36.555Z,16.77
2023-01-02T06:31:06.536Z,13.65
2023-01-02T06:33:34.004Z,10.27
2023-01-02T06:36:06.946Z,9.48
2023-01-02T06:38:34.428Z,11.45
2023-01-02T06:41:02.767Z,19.00
2023-01-02T06:43:30.544Z,16.52
2023-01-02T06:46:01.852Z,16.30
2023-01-02T06:48:29.068Z,14.13
2023-01-02T06:50:56.172Z,16.38
2023-01-02T06:53:23.182Z,13.30
2023-01-02T06:55:58.153Z,15.93
2023-01-02T06:58:28.354Z,14.00
2023-01-02T07:00:55.345Z,11.93
2023-01-02T07:03:22.417Z,10.65
2023-01-02T07:05:49.542Z,12.88
2023-01-02T07:08:16.586Z,17.10
2023-01-02T07:10:47.883Z,12.10
2023-01-02T07:13:18.414Z,15.77
2023-01-02T07:15:45.664Z,14.95
2023-01-02T07:18:12.831Z,13.02
2023-01-02T07:20:40.082Z,11.50
2023-01-02T07:23:07.081Z,8.35
2023-01-02T07:25:36.114Z,9.43
2023-01-02T07:28:05.851Z,8.48
2023-01-02T07:30:32.854Z,13.07
2023-01-02T07:33:02.304Z,10.88
2023-01-02T07:35:29.284Z,9.07
2023-01-02T07:37:57.626Z,6.68
2023-01-02T07:40:30.226Z,7.90
2023-01-02T07:42:59.247Z,6.43
2023-01-02T07:45:26.606Z,6.28
2023-01-02T07:47:53.767Z,8.45
2023-01-02T07:50:20.792Z,7.75
2023-01-02T07:52:50.077Z,9.23
2023-01-02T07:55:20.807Z,8.27
2023-01-02T07:57:47.802Z,8.98
2023-01-02T08:00:16.874Z,8.07
2023-01-02T08:02:44.066Z,8.60
2023-01-02T08:05:13.639Z,12.98
2023-01-02T08:07:45.419Z,11.50
2023-01-02T08:10:13.496Z,7.78
2023-01-02T08:12:40.667Z,10.75
2023-01-02T08:15:08.297Z,10.43
2023-01-02T08:17:35.428Z,7.65
2023-01-02T08:20:07.508Z,8.00
2023-01-02T08:22:35.338Z,12.00
2023-01-02T08:25:02.702Z,10.70
2023-01-02T08:27:29.979Z,8.85
2023-01-02T08:29:57.345Z,9.48
2023-01-02T08:32:24.456Z,8.15
2023-01-02T08:34:51.586Z,9.02
2023-01-02T08:37:18.786Z,13.10
2023-01-02T08:40:24.818Z,8.60
2023-01-02T08:42:54.893Z,8.57
2023-01-02T08:45:22.016Z,10.15
2023-01-02T08:47:49.166Z,11.07
2023-01-02T08:50:16.373Z,15.68
2023-01-02T08:52:43.509Z,13.00
2023-01-02T08:55:10.709Z,11.30
2023-01-02T09:00:34.033Z,11.27
2023-01-02T09:03:01.444Z,11.93
2023-01-02T09:05:29.854Z,11.02
2023-01-02T09:07:58.151Z,11.52
2023-01-02T09:10:25.791Z,12.90
2023-01-02T09:12:53.454Z,14.90
2023-01-02T09:15:20.539Z,11.88
2023-01-02T09:17:49.771Z,12.07
2023-01-02T09:20:17.241Z,11.32
2023-01-02T09:22:45.109Z,10.70
2023-01-02T09:25:12.501Z,10.57
2023-01-02T09:27:39.589Z,11.85
2023-01-02T09:30:07.149Z,12.40
2023-01-02T09:32:34.212Z,13.73
2023-01-02T09:35:01.444Z,13.38
2023-01-02T09:37:28.434Z,16.67
2023-01-02T09:39:55.414Z,12.68
2023-01-02T09:42:24.221Z,13.63
2023-01-02T09:45:01.642Z,10.45
2023-01-02T09:47:33.773Z,9.68
2023-01-02T09:50:03.605Z,12.93
2023-01-02T09:52:35.499Z,15.68
2023-01-02T09:57:34.767Z,13.18
2023-01-02T10:00:09.016Z,8.77
2023-01-02T10:06:42.464Z,8.55
2023-01-02T10:09:20.917Z,9.55
2023-01-02T10:11:56.369Z,12.68
2023-01-02T10:14:52.718Z,10.32
2023-01-02T10:17:20.752Z,13.77
2023-01-02T10:20:06.593Z,6.35
2023-01-02T10:22:40.418Z,8.70
2023-01-02T10:25:13.947Z,8.35
2023-01-02T10:27:53.340Z,11.25
2023-01-02T10:30:35.980Z,12.85
2023-01-02T10:33:12.161Z,12.68
2023-01-02T10:35:42.690Z,8.98
2023-01-02T10:38:13.355Z,10.80
2023-01-02T10:40:44.395Z,11.40
2023-01-02T10:43:19.483Z,14.98
2023-01-02T10:45:46.742Z,15.77
2023-01-02T10:48:14.030Z,16.52
2023-01-02T10:50:47.808Z,16.27
2023-01-02T10:53:28.668Z,9.40
2023-01-02T10:55:55.689Z,8.77
2023-01-02T10:58:25.892Z,8.48
2023-01-02T11:01:12.414Z,9.15
2023-01-02T11:03:40.130Z,15.02
2023-01-02T11:06:29.157Z,16.92
2023-01-02T11:09:17.517Z,8.27
2023-01-02T11:12:06.729Z,12.40
2023-01-02T11:14:35.635Z,11.00
2023-01-02T11:17:19.586Z,9.75
2023-01-02T11:19:50.314Z,18.33
2023-01-02T11:22:23.251Z,12.85
2023-01-02T11:25:02.597Z,13.02
2023-01-02T11:27:32.440Z,20.08
2023-01-02T11:29:59.985Z,12.55
2023-01-02T11:32:37.646Z,14.80
2023-01-02T11:35:38.097Z,9.93
2023-01-02T11:38:13.285Z,11.52
2023-01-02T11:40:56.626Z,11.52
2023-01-02T11:43:31.131Z,10.90
2023-01-02T11:45:59.467Z,12.77
2023-01-02T11:48:26.613Z,12.18
2023-01-02T11:50:56.623Z,12.40
2023-01-02T11:53:41.179Z,8.18
2023-01-02T11:56:12.913Z,9.68
2023-01-02T12:01:24.817Z,9.98
2023-01-02T12:03:52.173Z,15.30
2023-01-02T12:06:22.324Z,8.32
2023-01-02T12:09:13.138Z,10.43
2023-01-02T12:11:57.006Z,8.77
2023-01-02T12:14:54.369Z,8.43
2023-01-02T12:17:35.548Z,8.27
2023-01-02T12:20:26.331Z,9.18
2023-01-02T12:23:32.227Z,11.60
2023-01-02T12:26:21.960Z,13.88
2023-01-02T12:29:46.130Z,8.75
2023-01-02T12:32:23.279Z,16.83
2023-01-02T12:34:57.205Z,10.10
2023-01-02T12:37:39.461Z,10.90
2023-01-02T12:40:18.491Z,13.55
2023-01-02T12:43:10.825Z,16.00
2023-01-02T12:46:03.886Z,14.00
2023-01-02T12:48:40.008Z,15.10
2023-01-02T12:51:16.343Z,11.40
2023-01-02T12:54:18.851Z,7.70
2023-01-02T12:57:07.152Z,10.98
2023-01-02T12:59:52.232Z,13.65
2023-01-02T13:02:19.400Z,10.68
2023-01-02T13:04:51.064Z,15.98
2023-01-02T13:07:30.539Z,14.15
2023-01-02T13:10:01.632Z,17.73
2023-01-02T13:12:31.943Z,18.45
2023-01-02T13:15:01.371Z,12.80
2023-01-02T13:17:31.224Z,8.65
2023-01-02T13:20:24.169Z,11.88
2023-01-02T13:23:03.620Z,10.25
2023-01-02T13:25:31.733Z,11.35
2023-01-02T13:27:59.551Z,0.10
2023-01-02T13:30:33.537Z,0.10
2023-01-02T13:33:02.715Z,0.10
2023-01-02T13:35:37.728Z,9.65
2023-01-02T13:38:07.333Z,11.35
2023-01-02T13:40:34.552Z,11.52
2023-01-02T13:43:05.800Z,14.23
2023-01-02T13:45:45.424Z,14.73
2023-01-02T13:48:39.927Z,10.05
2023-01-02T13:51:16.430Z,14.18
2023-01-02T13:53:46.380Z,8.85
2023-01-02T13:56:16.297Z,10.68
2023-01-02T13:58:56.822Z,21.35
2023-01-02T14:01:23.875Z,23.00
2023-01-02T14:04:10.930Z,17.77
2023-01-02T14:06:51.667Z,25.02
2023-01-02T14:09:22.694Z,43.08
2023-01-02T14:11:56.605Z,30.20
2023-01-02T14:14:33.555Z,22.98
2023-01-02T14:17:39.222Z,16.13
2023-01-02T14:20:18.497Z,11.52
2023-01-02T14:22:49.232Z,0.10
2023-01-02T14:25:16.770Z,0.10
2023-01-02T14:27:54.763Z,0.10
2023-01-02T14:30:32.395Z,0.15
2023-01-02T14:33:01.396Z,0.63
2023-01-02T14:35:32.940Z,0.75
2023-01-02T14:38:20.742Z,13.43
2023-01-02T14:40:48.748Z,21.08
2023-01-02T14:43:17.707Z,14.93
2023-01-02T14:46:19.416Z,14.00
2023-01-02T14:49:01.124Z,11.38
2023-01-02T14:51:57.278Z,10.65
2023-01-02T14:54:29.468Z,11.65
2023-01-02T14:57:02.724Z,13.05
2023-01-02T14:59:43.105Z,12.00
2023-01-02T15:02:16.707Z,14.18
2023-01-02T15:04:50.113Z,12.73
2023-01-02T15:07:26.654Z,15.57
2023-01-02T15:09:58.634Z,14.40
2023-01-02T15:12:31.647Z,12.15
2023-01-02T15:14:58.637Z,11.63
2023-01-02T15:17:26.187Z,10.40
2023-01-02T15:19:53.405Z,11.57
2023-01-02T15:22:27.069Z,10.38
2023-01-02T15:24:54.539Z,15.02
2023-01-02T15:27:29.847Z,9.80
2023-01-02T15:30:01.748Z,9.88
2023-01-02T15:32:31.437Z,12.20
2023-01-02T15:35:19.751Z,10.77
2023-01-02T15:37:48.722Z,10.02
2023-01-02T15:40:26.521Z,8.80
2023-01-02T15:42:57.041Z,13.68
2023-01-02T15:45:25.346Z,14.57
2023-01-02T15:47:52.802Z,11.07
2023-01-02T15:50:28.393Z,9.98
2023-01-02T15:53:05.077Z,12.38
2023-01-02T15:55:40.138Z,14.13
2023-01-02T15:58:16.734Z,10.98
2023-01-02T16:00:45.774Z,9.57
2023-01-02T16:04:01.637Z,14.82
2023-01-02T16:06:46.706Z,20.60
2023-01-02T16:09:22.486Z,20.25
2023-01-02T16:11:53.307Z,8.93
2023-01-02T16:14:45.369Z,14.85
2023-01-02T16:19:58.190Z,23.95
2023-01-02T16:22:45.672Z,15.10
2023-01-02T16:25:29.695Z,15.00
2023-01-02T16:28:01.587Z,8.40
2023-01-02T16:30:30.373Z,8.77
2023-01-02T16:33:01.620Z,12.65
2023-01-02T16:35:32.951Z,10.63
2023-01-02T16:38:24.686Z,3.45
2023-01-02T16:41:00.676Z,7.78
2023-01-02T16:43:31.501Z,6.25
2023-01-02T16:45:59.708Z,7.13
2023-01-02T16:48:28.780Z,6.80
2023-01-02T16:50:57.871Z,5.07
2023-01-02T16:53:30.081Z,6.55
2023-01-02T16:55:58.726Z,3.20
2023-01-02T16:58:27.300Z,2.30
2023-01-02T17:00:55.995Z,3.22
2023-01-02T17:03:25.893Z,4.05
2023-01-02T17:06:01.411Z,2.88
2023-01-02T17:08:33.860Z,3.60
2023-01-02T17:11:01.549Z,3.22
2023-01-02T17:13:29.334Z,4.40
2023-01-02T17:15:56.807Z,5.88
2023-01-02T17:18:24.856Z,4.43
2023-01-02T17:20:52.217Z,4.07
2023-01-02T17:23:19.631Z,4.47
2023-01-02T17:25:47.747Z,4.05
2023-01-02T17:28:15.369Z,4.82
2023-01-02T17:30:45.824Z,3.90
2023-01-02T17:33:13.018Z,4.53
2023-01-02T17:35:40.250Z,4.15
2023-01-02T17:38:07.707Z,6.40
2023-01-02T17:40:34.780Z,5.70
2023-01-02T17:43:01.819Z,6.55
2023-01-02T17:45:29.454Z,5.93
2023-01-02T17:48:03.562Z,6.72
2023-01-02T17:50:34.745Z,6.50
2023-01-02T17:53:01.746Z,8.30
2023-01-02T17:55:28.913Z,6.63
2023-01-02T17:57:56.016Z,10.85
2023-01-02T18:00:23.271Z,8.85
2023-01-02T18:02:54.696Z,9.90
2023-01-02T18:05:22.142Z,9.80
2023-01-02T18:07:49.303Z,4.82
2023-01-02T18:10:20.465Z,6.88
2023-01-02T18:12:48.944Z,5.47
2023-01-02T18:15:17.855Z,5.13
2023-01-02T18:17:44.975Z,7.78
2023-01-02T18:20:14.640Z,6.00
2023-01-02T18:22:48.431Z,10.30
2023-01-02T18:25:27.511Z,4.32
2023-01-02T18:28:01.427Z,4.57
2023-01-02T18:30:28.702Z,7.32
2023-01-02T18:33:14.483Z,5.30
2023-01-02T18:35:58.448Z,6.85
2023-01-02T18:38:28.782Z,10.18
2023-01-02T18:40:56.068Z,14.20
2023-01-02T18:43:27.175Z,32.33
2023-01-02T18:45:58.692Z,12.82
2023-01-02T18:48:26.664Z,11.93
2023-01-02T18:50:58.084Z,5.28
2023-01-02T18:53:29.577Z,8.30
2023-01-02T18:56:16.358Z,9.10
2023-01-02T18:58:45.909Z,8.43
2023-01-02T19:01:43.149Z,6.68
2023-01-02T19:04:18.858Z,8.48
2023-01-02T19:06:55.207Z,9.15
2023-01-02T19:09:29.844Z,12.93
2023-01-02T19:12:20.288Z,8.50
2023-01-02T19:14:50.403Z,10.70
2023-01-02T19:17:26.120Z,9.93
2023-01-02T19:19:56.572Z,12.18
2023-01-02T19:22:36.029Z,10.43
2023-01-02T19:25:17.615Z,8.18
2023-01-02T19:27:44.858Z,8.90
2023-01-02T19:30:33.136Z,11.27
2023-01-02T19:33:00.292Z,7.82
2023-01-02T19:35:36.571Z,10.13
2023-01-02T19:38:26.363Z,10.18
2023-01-02T19:40:55.884Z,9.13
2023-01-02T19:43:23.439Z,6.45
2023-01-02T19:45:50.682Z,9.57
2023-01-02T19:48:18.384Z,6.25
2023-01-02T19:50:45.828Z,10.13
2023-01-02T19:53:13.017Z,5.78
2023-01-02T19:55:41.446Z,6.45
2023-01-02T19:58:08.791Z,5.57
2023-01-02T20:00:35.970Z,8.00
2023-01-02T20:03:05.406Z,6.40
2023-01-02T20:05:32.856Z,6.85
2023-01-02T20:08:00.060Z,5.32
2023-01-02T20:10:29.264Z,6.55
2023-01-02T20:12:56.422Z,4.07
2023-01-02T20:15:27.238Z,5.68
2023-01-02T20:17:54.572Z,4.72
2023-01-02T20:20:25.243Z,5.05
2023-01-02T20:22:52.925Z,5.55
2023-01-02T20:25:21.372Z,5.60
2023-01-02T20:27:48.603Z,5.15
2023-01-02T20:30:20.205Z,4.43
2023-01-02T20:32:49.328Z,5.40
2023-01-02T20:35:16.669Z,5.88
2023-01-02T20:37:47.033Z,2.92
2023-01-02T20:40:15.899Z,4.55
2023-01-02T20:42:43.242Z,4.07
2023-01-02T20:45:11.089Z,3.78
2023-01-02T20:47:38.340Z,3.22
2023-01-02T20:50:05.956Z,3.85
2023-01-02T20:52:33.151Z,4.47
2023-01-02T20:55:00.507Z,5.20
2023-01-02T20:57:31.008Z,4.75
2023-01-02T20:59:58.264Z,4.00
2023-01-02T21:02:25.692Z,3.25
2023-01-02T21:04:53.003Z,2.35
2023-01-02T21:07:24.616Z,2.67
2023-01-02T21:09:52.320Z,2.47
2023-01-02T21:12:19.423Z,3.00
2023-01-02T21:14:46.510Z,3.72
2023-01-02T21:17:14.628Z,5.43
2023-01-02T21:19:41.672Z,3.08
2023-01-02T21:22:08.763Z,2.42
2023-01-02T21:24:35.905Z,5.40
2023-01-02T21:27:06.514Z,3.33
2023-01-02T21:29:36.374Z,4.25
2023-01-02T21:32:03.580Z,5.25
2023-01-02T21:34:30.712Z,5.63
2023-01-02T21:36:57.871Z,5.55
2023-01-02T21:39:24.874Z,3.17
2023-01-02T21:41:52.907Z,3.75
2023-01-02T21:44:19.910Z,2.17
2023-01-02T21:46:47.043Z,3.42
2023-01-02T21:49:14.186Z,2.42
2023-01-02T21:51:41.186Z,1.95
2023-01-02T21:54:08.378Z,2.15
2023-01-02T21:56:35.393Z,3.00
2023-01-02T21:59:02.460Z,6.00
2023-01-02T22:01:29.580Z,3.17
2023-01-02T22:03:56.825Z,1.75
2023-01-02T22:06:24.307Z,3.05
2023-01-02T22:08:51.320Z,2.55
2023-01-02T22:11:18.324Z,3.22
2023-01-02T22:13:45.354Z,3.38
2023-01-02T22:16:12.439Z,3.97
2023-01-02T22:18:39.559Z,2.60
2023-01-02T22:21:06.576Z,2.42
2023-01-02T22:23:35.496Z,4.82
2023-01-02T22:26:02.581Z,2.40
2023-01-02T22:28:29.703Z,5.07
2023-01-02T22:30:57.606Z,3.78
2023-01-02T22:33:24.746Z,3.30
2023-01-02T22:35:52.301Z,3.88
2023-01-02T22:38:19.314Z,2.30
2023-01-02T22:40:47.766Z,2.42
2023-01-02T22:43:19.378Z,3.33
2023-01-02T22:45:51.187Z,2.72
2023-01-02T22:48:25.579Z,2.28
2023-01-02T22:50:55.620Z,3.22
2023-01-02T22:53:31.742Z,2.13
2023-01-02T22:56:00.928Z,3.90
2023-01-02T22:58:28.263Z,3.03
2023-01-02T23:01:04.401Z,4.68
2023-01-02T23:03:38.739Z,2.38
2023-01-02T23:06:06.410Z,3.03
2023-01-02T23:08:33.929Z,4.45
2023-01-02T23:11:02.021Z,3.53
2023-01-02T23:13:29.183Z,3.83
2023-01-02T23:15:56.191Z,7.70
2023-01-02T23:18:23.650Z,3.38
2023-01-02T23:20:50.613Z,4.40
2023-01-02T23:23:17.651Z,6.82
2023-01-02T23:25:44.816Z,4.25
2023-01-02T23:28:31.912Z,3.67
2023-01-02T23:30:58.785Z,2.30
2023-01-02T23:33:25.958Z,3.38
2023-01-02T23:35:53.017Z,4.53
2023-01-02T23:38:20.325Z,3.55
2023-01-02T23:40:47.316Z,5.10
2023-01-02T23:43:14.331Z,5.50
2023-01-02T23:45:42.504Z,4.97
2023-01-02T23:48:09.613Z,3.00
2023-01-02T23:50:36.687Z,3.00
2023-01-02T23:53:03.787Z,3.28
2023-01-02T23:55:30.802Z,5.95
2023-01-02T23:57:57.846Z,7.43
